sensor_id;sensor_type;location;lat;lon;timestamp;pressure;altitude;pressure_sealevel;temperature;humidity
12475;BME280;6302;42.624;23.334;2024-01-06T00:01:55;93111.13;;;7.17;100.00
12475;BME280;6302;42.624;23.334;2024-01-06T00:04:21;93110.34;;;7.13;100.00
12475;BME280;6302;42.624;23.334;2024-01-06T00:06:48;93115.22;;;7.11;100.00
12475;BME280;6302;42.624;23.334;2024-01-06T00:09:15;93108.84;;;7.12;100.00
12475;BME280;6302;42.624;23.334;2024-01-06T00:11:42;93097.94;;;7.14;100.00
12475;BME280;6302;42.624;23.334;2024-01-06T00:14:08;93082.88;;;7.14;100.00
12475;BME280;6302;42.624;23.334;2024-01-06T00:16:35;93090.03;;;7.17;100.00
12475;BME280;6302;42.624;23.334;2024-01-06T00:19:03;93098.69;;;7.21;100.00
12475;BME280;6302;42.624;23.334;2024-01-06T00:21:30;93114.88;;;7.23;100.00
12475;BME280;6302;42.624;23.334;2024-01-06T00:23:57;93118.28;;;7.28;100.00
12475;BME280;6302;42.624;23.334;2024-01-06T00:26:23;93122.41;;;7.29;100.00
12475;BME280;6302;42.624;23.334;2024-01-06T00:28:50;93105.88;;;7.32;100.00
12475;BME280;6302;42.624;23.334;2024-01-06T00:31:17;93110.75;;;7.30;100.00
12475;BME280;6302;42.624;23.334;2024-01-06T00:33:45;93105.47;;;7.22;100.00
12475;BME280;6302;42.624;23.334;2024-01-06T00:36:13;93116.03;;;7.30;100.00
12475;BME280;6302;42.624;23.334;2024-01-06T00:38:40;93121.66;;;7.17;100.00
12475;BME280;6302;42.624;23.334;2024-01-06T00:41:06;93129.94;;;7.19;100.00
12475;BME280;6302;42.624;23.334;2024-01-06T00:43:33;93117.50;;;7.13;100.00
12475;BME280;6302;42.624;23.334;2024-01-06T00:46:00;93117.50;;;7.13;100.00
12475;BME280;6302;42.624;23.334;2024-01-06T00:48:27;93120.16;;;7.13;100.00
12475;BME280;6302;42.624;23.334;2024-01-06T00:50:54;93103.19;;;7.10;100.00
12475;BME280;6302;42.624;23.334;2024-01-06T00:53:22;93097.56;;;7.08;100.00
12475;BME280;6302;42.624;23.334;2024-01-06T00:55:49;93108.09;;;7.08;100.00
12475;BME280;6302;42.624;23.334;2024-01-06T00:58:16;93101.34;;;7.11;100.00
12475;BME280;6302;42.624;23.334;2024-01-06T01:00:43;93106.22;;;7.12;100.00
12475;BME280;6302;42.624;23.334;2024-01-06T01:03:09;93096.44;;;7.13;100.00
12475;BME280;6302;42.624;23.334;2024-01-06T01:05:36;93106.59;;;7.11;100.00
12475;BME280;6302;42.624;23.334;2024-01-06T01:08:03;93099.44;;;7.11;100.00
12475;BME280;6302;42.624;23.334;2024-01-06T01:10:32;93105.06;;;7.13;100.00
12475;BME280;6302;42.624;23.334;2024-01-06T01:12:58;93108.13;;;7.15;100.00
12475;BME280;6302;42.624;23.334;2024-01-06T01:15:25;93110.72;;;7.19;100.00
12475;BME280;6302;42.624;23.334;2024-01-06T01:17:52;93102.44;;;7.17;100.00
12475;BME280;6302;42.624;23.334;2024-01-06T01:20:19;93091.53;;;7.18;100.00
12475;BME280;6302;42.624;23.334;2024-01-06T01:22:46;93088.53;;;7.16;100.00
12475;BME280;6302;42.624;23.334;2024-01-06T01:25:12;93090.78;;;7.14;100.00
12475;BME280;6302;42.624;23.334;2024-01-06T01:27:40;93081.34;;;7.13;100.00
12475;BME280;6302;42.624;23.334;2024-01-06T01:30:08;93087.03;;;7.08;100.00
12475;BME280;6302;42.624;23.334;2024-01-06T01:32:35;93086.63;;;7.06;100.00
12475;BME280;6302;42.624;23.334;2024-01-06T01:35:02;93077.97;;;7.02;100.00
12475;BME280;6302;42.624;23.334;2024-01-06T01:37:29;93072.31;;;7.00;100.00
12475;BME280;6302;42.624;23.334;2024-01-06T01:39:55;93065.53;;;6.99;100.00
12475;BME280;6302;42.624;23.334;2024-01-06T01:42:22;93064.41;;;7.00;100.00
12475;BME280;6302;42.624;23.334;2024-01-06T01:44:50;93064.41;;;7.00;100.00
12475;BME280;6302;42.624;23.334;2024-01-06T01:47:19;93065.91;;;7.01;100.00
12475;BME280;6302;42.624;23.334;2024-01-06T01:49:47;93067.81;;;7.01;100.00
12475;BME280;6302;42.624;23.334;2024-01-06T01:52:15;93035.75;;;6.74;100.00
12475;BME280;6302;42.624;23.334;2024-01-06T01:54:43;93053.88;;;7.00;100.00
12475;BME280;6302;42.624;23.334;2024-01-06T01:57:12;93053.88;;;6.93;100.00
12475;BME280;6302;42.624;23.334;2024-01-06T01:59:39;93062.88;;;6.92;100.00
12475;BME280;6302;42.624;23.334;2024-01-06T02:02:08;93058.38;;;6.93;100.00
12475;BME280;6302;42.624;23.334;2024-01-06T02:04:35;93054.63;;;6.90;100.00
12475;BME280;6302;42.624;23.334;2024-01-06T02:07:02;93054.63;;;6.90;100.00
12475;BME280;6302;42.624;23.334;2024-01-06T02:09:28;93052.34;;;6.92;100.00
12475;BME280;6302;42.624;23.334;2024-01-06T02:11:56;93045.97;;;6.97;100.00
12475;BME280;6302;42.624;23.334;2024-01-06T02:14:23;93044.81;;;6.94;100.00
12475;BME280;6302;42.624;23.334;2024-01-06T02:16:50;93023.78;;;6.98;100.00
12475;BME280;6302;42.624;23.334;2024-01-06T02:19:18;93026.75;;;6.96;100.00
12475;BME280;6302;42.624;23.334;2024-01-06T02:21:49;93023.00;;;6.97;100.00
12475;BME280;6302;42.624;23.334;2024-01-06T02:24:16;93013.22;;;6.98;100.00
12475;BME280;6302;42.624;23.334;2024-01-06T02:26:43;93011.72;;;6.93;100.00
12475;BME280;6302;42.624;23.334;2024-01-06T02:29:10;93021.50;;;6.86;100.00
12475;BME280;6302;42.624;23.334;2024-01-06T02:31:36;93004.94;;;6.85;100.00
12475;BME280;6302;42.624;23.334;2024-01-06T02:34:03;93010.22;;;6.85;100.00
12475;BME280;6302;42.624;23.334;2024-01-06T02:36:30;93007.94;;;6.73;100.00
12475;BME280;6302;42.624;23.334;2024-01-06T02:38:58;93010.94;;;6.82;100.00
12475;BME280;6302;42.624;23.334;2024-01-06T02:41:25;93005.69;;;6.82;100.00
12475;BME280;6302;42.624;23.334;2024-01-06T02:43:53;92982.00;;;6.79;100.00
12475;BME280;6302;42.624;23.334;2024-01-06T02:46:20;92979.34;;;6.75;100.00
12475;BME280;6302;42.624;23.334;2024-01-06T02:48:47;93003.41;;;6.84;100.00
12475;BME280;6302;42.624;23.334;2024-01-06T02:51:13;92972.56;;;6.67;100.00
12475;BME280;6302;42.624;23.334;2024-01-06T02:53:40;92992.53;;;6.86;100.00
12475;BME280;6302;42.624;23.334;2024-01-06T02:56:11;92983.13;;;6.81;100.00
12475;BME280;6302;42.624;23.334;2024-01-06T02:58:38;92970.31;;;6.94;100.00
12475;BME280;6302;42.624;23.334;2024-01-06T03:01:04;92971.44;;;6.89;100.00
12475;BME280;6302;42.624;23.334;2024-01-06T03:03:32;92971.44;;;6.89;100.00
12475;BME280;6302;42.624;23.334;2024-01-06T03:05:58;92952.25;;;6.92;100.00
12475;BME280;6302;42.624;23.334;2024-01-06T03:08:25;92972.56;;;6.92;100.00
12475;BME280;6302;42.624;23.334;2024-01-06T03:10:52;92973.34;;;6.92;100.00
12475;BME280;6302;42.624;23.334;2024-01-06T03:13:20;92965.81;;;6.94;100.00
12475;BME280;6302;42.624;23.334;2024-01-06T03:15:47;92980.88;;;6.97;100.00
12475;BME280;6302;42.624;23.334;2024-01-06T03:18:14;92977.13;;;6.98;100.00
12475;BME280;6302;42.624;23.334;2024-01-06T03:20:41;92956.03;;;6.98;100.00
12475;BME280;6302;42.624;23.334;2024-01-06T03:23:08;92963.19;;;6.91;100.00
12475;BME280;6302;42.624;23.334;2024-01-06T03:25:35;92973.72;;;6.91;100.00
12475;BME280;6302;42.624;23.334;2024-01-06T03:28:01;92969.56;;;6.90;100.00
12475;BME280;6302;42.624;23.334;2024-01-06T03:30:30;92960.91;;;6.89;100.00
12475;BME280;6302;42.624;23.334;2024-01-06T03:32:56;92964.31;;;6.90;100.00
12475;BME280;6302;42.624;23.334;2024-01-06T03:35:23;92948.50;;;6.86;100.00
12475;BME280;6302;42.624;23.334;2024-01-06T03:37:50;92951.88;;;6.83;100.00
12475;BME280;6302;42.624;23.334;2024-01-06T03:40:17;92956.00;;;6.84;100.00
12475;BME280;6302;42.624;23.334;2024-01-06T03:42:43;92960.16;;;6.82;100.00
12475;BME280;6302;42.624;23.334;2024-01-06T03:45:10;92953.75;;;6.79;100.00
12475;BME280;6302;42.624;23.334;2024-01-06T03:47:38;92951.53;;;6.81;100.00
12475;BME280;6302;42.624;23.334;2024-01-06T03:50:06;92952.63;;;6.80;100.00
12475;BME280;6302;42.624;23.334;2024-01-06T03:52:32;92959.03;;;6.79;100.00
12475;BME280;6302;42.624;23.334;2024-01-06T03:54:59;92953.41;;;6.81;100.00
12475;BME280;6302;42.624;23.334;2024-01-06T03:57:26;92953.75;;;6.79;100.00
12475;BME280;6302;42.624;23.334;2024-01-06T03:59:53;92944.34;;;6.75;100.00
12475;BME280;6302;42.624;23.334;2024-01-06T04:02:20;92943.59;;;6.74;100.00
12475;BME280;6302;42.624;23.334;2024-01-06T04:04:48;92946.59;;;6.73;100.00
12475;BME280;6302;42.624;23.334;2024-01-06T04:07:14;92953.00;;;6.72;100.00
12475;BME280;6302;42.624;23.334;2024-01-06T04:09:42;92950.75;;;6.74;100.00
12475;BME280;6302;42.624;23.334;2024-01-06T04:12:09;92954.53;;;6.76;100.00
12475;BME280;6302;42.624;23.334;2024-01-06T04:14:36;92946.59;;;6.73;100.00
12475;BME280;6302;42.624;23.334;2024-01-06T04:17:03;92950.75;;;6.81;100.00
12475;BME280;6302;42.624;23.334;2024-01-06T04:19:29;92952.25;;;6.85;100.00
12475;BME280;6302;42.624;23.334;2024-01-06T04:21:57;92947.75;;;6.89;100.00
12475;BME280;6302;42.624;23.334;2024-01-06T04:24:24;92932.69;;;6.93;100.00
12475;BME280;6302;42.624;23.334;2024-01-06T04:26:51;92949.63;;;6.85;100.00
12475;BME280;6302;42.624;23.334;2024-01-06T04:29:18;92950.00;;;6.87;100.00
12475;BME280;6302;42.624;23.334;2024-01-06T04:31:44;92959.03;;;7.00;100.00
12475;BME280;6302;42.624;23.334;2024-01-06T04:34:11;92955.28;;;7.08;100.00
12475;BME280;6302;42.624;23.334;2024-01-06T04:36:38;92965.81;;;6.98;100.00
12475;BME280;6302;42.624;23.334;2024-01-06T04:39:06;92972.59;;;6.95;100.00
12475;BME280;6302;42.624;23.334;2024-01-06T04:41:33;92964.28;;;7.04;100.00
12475;BME280;6302;42.624;23.334;2024-01-06T04:44:00;92947.00;;;6.85;100.00
12475;BME280;6302;42.624;23.334;2024-01-06T04:46:26;92971.81;;;6.77;100.00
12475;BME280;6302;42.624;23.334;2024-01-06T04:48:56;92969.91;;;6.74;100.00
12475;BME280;6302;42.624;23.334;2024-01-06T04:51:22;92959.78;;;6.76;100.00
12475;BME280;6302;42.624;23.334;2024-01-06T04:53:49;92980.44;;;6.67;100.00
12475;BME280;6302;42.624;23.334;2024-01-06T04:56:17;92968.81;;;6.75;100.00
12475;BME280;6302;42.624;23.334;2024-01-06T04:58:44;92967.28;;;6.74;100.00
12475;BME280;6302;42.624;23.334;2024-01-06T05:01:11;92979.31;;;6.61;100.00
12475;BME280;6302;42.624;23.334;2024-01-06T05:03:38;92961.25;;;6.56;100.00
12475;BME280;6302;42.624;23.334;2024-01-06T05:06:05;92955.25;;;6.59;100.00
12475;BME280;6302;42.624;23.334;2024-01-06T05:08:32;92977.00;;;6.42;100.00
12475;BME280;6302;42.624;23.334;2024-01-06T05:10:59;92957.44;;;6.39;100.00
12475;BME280;6302;42.624;23.334;2024-01-06T05:13:27;92945.41;;;6.28;100.00
12475;BME280;6302;42.624;23.334;2024-01-06T05:15:54;92948.78;;;6.21;100.00
12475;BME280;6302;42.624;23.334;2024-01-06T05:18:21;92956.28;;;6.23;100.00
12475;BME280;6302;42.624;23.334;2024-01-06T05:20:48;92932.22;;;6.21;100.00
12475;BME280;6302;42.624;23.334;2024-01-06T05:23:15;92942.41;;;6.26;100.00
12475;BME280;6302;42.624;23.334;2024-01-06T05:25:41;92931.13;;;6.22;100.00
12475;BME280;6302;42.624;23.334;2024-01-06T05:28:08;92921.34;;;6.26;100.00
12475;BME280;6302;42.624;23.334;2024-01-06T05:30:36;92942.69;;;6.03;100.00
12475;BME280;6302;42.624;23.334;2024-01-06T05:33:03;92917.16;;;6.04;100.00
12475;BME280;6302;42.624;23.334;2024-01-06T05:35:30;92919.75;;;5.89;100.00
12475;BME280;6302;42.624;23.334;2024-01-06T05:37:57;92936.25;;;5.90;100.00
12475;BME280;6302;42.624;23.334;2024-01-06T05:40:24;92907.34;;;5.90;100.00
12475;BME280;6302;42.624;23.334;2024-01-06T05:42:50;92921.19;;;5.83;100.00
12475;BME280;6302;42.624;23.334;2024-01-06T05:45:20;92911.09;;;5.85;100.00
12475;BME280;6302;42.624;23.334;2024-01-06T05:47:49;92910.31;;;5.81;100.00
12475;BME280;6302;42.624;23.334;2024-01-06T05:50:16;92919.28;;;5.80;100.00
12475;BME280;6302;42.624;23.334;2024-01-06T05:52:43;92915.19;;;5.79;100.00
12475;BME280;6302;42.624;23.334;2024-01-06T05:55:10;92917.81;;;5.79;100.00
12475;BME280;6302;42.624;23.334;2024-01-06T05:57:36;92910.69;;;5.83;100.00
12475;BME280;6302;42.624;23.334;2024-01-06T06:00:06;92913.72;;;5.85;100.00
12475;BME280;6302;42.624;23.334;2024-01-06T06:02:34;92909.97;;;5.86;100.00
12475;BME280;6302;42.624;23.334;2024-01-06T06:05:03;92920.13;;;5.84;100.00
12475;BME280;6302;42.624;23.334;2024-01-06T06:07:29;92926.13;;;5.88;100.00
12475;BME280;6302;42.624;23.334;2024-01-06T06:09:56;92903.63;;;5.95;100.00
12475;BME280;6302;42.624;23.334;2024-01-06T06:12:23;92927.25;;;5.87;100.00
12475;BME280;6302;42.624;23.334;2024-01-06T06:14:50;92924.25;;;5.93;100.00
12475;BME280;6302;42.624;23.334;2024-01-06T06:17:17;92899.81;;;5.88;100.00
12475;BME280;6302;42.624;23.334;2024-01-06T06:19:44;92914.13;;;5.91;100.00
12475;BME280;6302;42.624;23.334;2024-01-06T06:22:12;92911.09;;;5.93;100.00
12475;BME280;6302;42.624;23.334;2024-01-06T06:24:39;92906.59;;;5.89;100.00
12475;BME280;6302;42.624;23.334;2024-01-06T06:27:05;92908.09;;;5.90;100.00
12475;BME280;6302;42.624;23.334;2024-01-06T06:29:32;92922.00;;;5.91;100.00
12475;BME280;6302;42.624;23.334;2024-01-06T06:31:59;92916.00;;;5.98;100.00
12475;BME280;6302;42.624;23.334;2024-01-06T06:34:26;92910.00;;;5.97;100.00
12475;BME280;6302;42.624;23.334;2024-01-06T06:36:53;92923.91;;;5.98;100.00
12475;BME280;6302;42.624;23.334;2024-01-06T06:39:20;92911.53;;;6.02;100.00
12475;BME280;6302;42.624;23.334;2024-01-06T06:41:47;92925.78;;;5.97;100.00
12475;BME280;6302;42.624;23.334;2024-01-06T06:44:14;92926.91;;;6.03;100.00
12475;BME280;6302;42.624;23.334;2024-01-06T06:46:40;92919.81;;;6.07;100.00
12475;BME280;6302;42.624;23.334;2024-01-06T06:49:09;92923.94;;;6.12;100.00
12475;BME280;6302;42.624;23.334;2024-01-06T06:51:36;92936.38;;;6.18;100.00
12475;BME280;6302;42.624;23.334;2024-01-06T06:54:11;92919.09;;;6.28;100.00
12475;BME280;6302;42.624;23.334;2024-01-06T06:56:39;92915.31;;;6.25;100.00
12475;BME280;6302;42.624;23.334;2024-01-06T06:59:06;92921.38;;;6.29;100.00
12475;BME280;6302;42.624;23.334;2024-01-06T07:01:33;92930.03;;;6.37;100.00
12475;BME280;6302;42.624;23.334;2024-01-06T07:04:00;92924.75;;;6.40;100.00
12475;BME280;6302;42.624;23.334;2024-01-06T07:06:27;92930.03;;;6.44;100.00
12475;BME280;6302;42.624;23.334;2024-01-06T07:08:54;92931.16;;;6.46;100.00
12475;BME280;6302;42.624;23.334;2024-01-06T07:11:21;92926.63;;;6.47;100.00
12475;BME280;6302;42.624;23.334;2024-01-06T07:13:49;92930.78;;;6.55;100.00
12475;BME280;6302;42.624;23.334;2024-01-06T07:16:16;92916.13;;;6.54;100.00
12475;BME280;6302;42.624;23.334;2024-01-06T07:18:43;92911.63;;;6.62;100.00
12475;BME280;6302;42.624;23.334;2024-01-06T07:21:11;92919.88;;;6.67;100.00
12475;BME280;6302;42.624;23.334;2024-01-06T07:23:39;92926.66;;;6.72;100.00
12475;BME280;6302;42.624;23.334;2024-01-06T07:26:06;92917.28;;;6.78;100.00
12475;BME280;6302;42.624;23.334;2024-01-06T07:28:33;92912.38;;;6.83;100.00
12475;BME280;6302;42.624;23.334;2024-01-06T07:31:01;92928.94;;;6.87;100.00
12475;BME280;6302;42.624;23.334;2024-01-06T07:33:29;92907.09;;;6.97;100.00
12475;BME280;6302;42.624;23.334;2024-01-06T07:35:56;92920.28;;;6.97;100.00
12475;BME280;6302;42.624;23.334;2024-01-06T07:38:23;92919.53;;;7.00;100.00
12475;BME280;6302;42.624;23.334;2024-01-06T07:40:50;92915.38;;;7.06;100.00
12475;BME280;6302;42.624;23.334;2024-01-06T07:43:17;92905.19;;;7.19;100.00
12475;BME280;6302;42.624;23.334;2024-01-06T07:45:43;92903.28;;;7.27;100.00
12475;BME280;6302;42.624;23.334;2024-01-06T07:48:11;92910.06;;;7.35;100.00
12475;BME280;6302;42.624;23.334;2024-01-06T07:50:38;92906.28;;;7.43;100.00
12475;BME280;6302;42.624;23.334;2024-01-06T07:53:05;92906.63;;;7.52;100.00
12475;BME280;6302;42.624;23.334;2024-01-06T07:55:32;92900.97;;;7.60;100.00
12475;BME280;6302;42.624;23.334;2024-01-06T07:57:59;92902.81;;;7.63;100.00
12475;BME280;6302;42.624;23.334;2024-01-06T08:00:25;92912.97;;;7.68;100.00
12475;BME280;6302;42.624;23.334;2024-01-06T08:02:52;92915.22;;;7.77;100.00
12475;BME280;6302;42.624;23.334;2024-01-06T08:05:21;92907.97;;;7.95;100.00
12475;BME280;6302;42.624;23.334;2024-01-06T08:07:49;92914.81;;;7.82;100.00
12475;BME280;6302;42.624;23.334;2024-01-06T08:10:16;92918.22;;;7.79;100.00
12475;BME280;6302;42.624;23.334;2024-01-06T08:12:42;92921.97;;;7.78;100.00
12475;BME280;6302;42.624;23.334;2024-01-06T08:15:09;92903.84;;;7.91;100.00
12475;BME280;6302;42.624;23.334;2024-01-06T08:17:36;92915.16;;;7.91;100.00
12475;BME280;6302;42.624;23.334;2024-01-06T08:20:04;92918.22;;;7.75;100.00
12475;BME280;6302;42.624;23.334;2024-01-06T08:22:33;92917.47;;;7.78;100.00
12475;BME280;6302;42.624;23.334;2024-01-06T08:24:59;92925.41;;;7.75;100.00
12475;BME280;6302;42.624;23.334;2024-01-06T08:27:26;92900.47;;;7.83;100.00
12475;BME280;6302;42.624;23.334;2024-01-06T08:29:53;92925.41;;;7.71;100.00
12475;BME280;6302;42.624;23.334;2024-01-06T08:32:19;92910.69;;;7.74;100.00
12475;BME280;6302;42.624;23.334;2024-01-06T08:34:47;92903.91;;;7.76;100.00
12475;BME280;6302;42.624;23.334;2024-01-06T08:37:13;92917.13;;;7.66;100.00
12475;BME280;6302;42.624;23.334;2024-01-06T08:39:42;92889.22;;;7.79;100.00
12475;BME280;6302;42.624;23.334;2024-01-06T08:42:09;92913.72;;;7.69;100.00
12475;BME280;6302;42.624;23.334;2024-01-06T08:44:35;92901.63;;;7.82;100.00
12475;BME280;6302;42.624;23.334;2024-01-06T08:47:02;92906.88;;;7.85;100.00
12475;BME280;6302;42.624;23.334;2024-01-06T08:49:29;92915.56;;;7.90;100.00
12475;BME280;6302;42.624;23.334;2024-01-06T08:51:56;92906.09;;;7.99;100.00
12475;BME280;6302;42.624;23.334;2024-01-06T08:54:23;92907.53;;;8.11;100.00
12475;BME280;6302;42.624;23.334;2024-01-06T08:56:52;92905.28;;;8.09;100.00
12475;BME280;6302;42.624;23.334;2024-01-06T08:59:18;92899.91;;;8.23;100.00
12475;BME280;6302;42.624;23.334;2024-01-06T09:01:45;92895.31;;;8.41;100.00
12475;BME280;6302;42.624;23.334;2024-01-06T09:04:12;92900.59;;;8.41;100.00
12475;BME280;6302;42.624;23.334;2024-01-06T09:06:40;92903.22;;;8.45;100.00
12475;BME280;6302;42.624;23.334;2024-01-06T09:09:07;92899.75;;;8.55;100.00
12475;BME280;6302;42.624;23.334;2024-01-06T09:11:35;92882.72;;;8.63;100.00
12475;BME280;6302;42.624;23.334;2024-01-06T09:14:03;92891.72;;;8.69;100.00
12475;BME280;6302;42.624;23.334;2024-01-06T09:16:30;92887.19;;;8.73;100.00
12475;BME280;6302;42.624;23.334;2024-01-06T09:18:56;92884.06;;;8.82;100.00
12475;BME280;6302;42.624;23.334;2024-01-06T09:21:23;92869.28;;;8.91;100.00
12475;BME280;6302;42.624;23.334;2024-01-06T09:23:51;92876.34;;;9.05;100.00
12475;BME280;6302;42.624;23.334;2024-01-06T09:26:18;92875.91;;;9.10;100.00
12475;BME280;6302;42.624;23.334;2024-01-06T09:28:45;92872.81;;;9.18;100.00
12475;BME280;6302;42.624;23.334;2024-01-06T09:31:13;92859.28;;;9.13;100.00
12475;BME280;6302;42.624;23.334;2024-01-06T09:33:40;92859.22;;;9.16;100.00
12475;BME280;6302;42.624;23.334;2024-01-06T09:36:07;92849.41;;;9.17;100.00
12475;BME280;6302;42.624;23.334;2024-01-06T09:38:37;92859.75;;;9.38;100.00
12475;BME280;6302;42.624;23.334;2024-01-06T09:41:04;92856.06;;;9.32;100.00
12475;BME280;6302;42.624;23.334;2024-01-06T09:43:31;92854.56;;;9.31;100.00
12475;BME280;6302;42.624;23.334;2024-01-06T09:46:06;92841.72;;;9.33;100.00
12475;BME280;6302;42.624;23.334;2024-01-06T09:48:40;92838.44;;;9.18;100.00
12475;BME280;6302;42.624;23.334;2024-01-06T09:51:09;92836.69;;;9.05;100.00
12475;BME280;6302;42.624;23.334;2024-01-06T09:53:43;92829.88;;;9.07;100.00
12475;BME280;6302;42.624;23.334;2024-01-06T09:56:11;92834.34;;;9.14;100.00
12475;BME280;6302;42.624;23.334;2024-01-06T09:58:38;92825.19;;;9.22;100.00
12475;BME280;6302;42.624;23.334;2024-01-06T10:01:06;92826.97;;;9.32;100.00
12475;BME280;6302;42.624;23.334;2024-01-06T10:03:35;92821.97;;;9.41;100.00
12475;BME280;6302;42.624;23.334;2024-01-06T10:06:04;92807.28;;;9.37;100.00
12475;BME280;6302;42.624;23.334;2024-01-06T10:08:31;92815.22;;;9.37;100.00
12475;BME280;6302;42.624;23.334;2024-01-06T10:10:59;92809.94;;;9.37;100.00
12475;BME280;6302;42.624;23.334;2024-01-06T10:13:26;92787.94;;;9.43;100.00
12475;BME280;6302;42.624;23.334;2024-01-06T10:15:54;92791.91;;;9.28;100.00
12475;BME280;6302;42.624;23.334;2024-01-06T10:18:21;92796.66;;;9.40;100.00
12475;BME280;6302;42.624;23.334;2024-01-06T10:20:50;92779.84;;;9.57;100.00
12475;BME280;6302;42.624;23.334;2024-01-06T10:23:18;92793.94;;;9.47;100.00
12475;BME280;6302;42.624;23.334;2024-01-06T10:25:44;92788.66;;;9.47;100.00
12475;BME280;6302;42.624;23.334;2024-01-06T10:28:12;92773.78;;;9.57;100.00
12475;BME280;6302;42.624;23.334;2024-01-06T10:30:39;92784.91;;;9.45;100.00
12475;BME280;6302;42.624;23.334;2024-01-06T10:33:08;92773.66;;;9.37;100.00
12475;BME280;6302;42.624;23.334;2024-01-06T10:35:35;92779.72;;;9.34;100.00
12475;BME280;6302;42.624;23.334;2024-01-06T10:38:03;92771.44;;;9.32;100.00
12475;BME280;6302;42.624;23.334;2024-01-06T10:40:31;92776.03;;;9.28;100.00
12475;BME280;6302;42.624;23.334;2024-01-06T10:42:59;92758.16;;;9.36;100.00
12475;BME280;6302;42.624;23.334;2024-01-06T10:45:28;92748.69;;;9.38;100.00
12475;BME280;6302;42.624;23.334;2024-01-06T10:47:55;92767.28;;;9.31;100.00
12475;BME280;6302;42.624;23.334;2024-01-06T10:50:23;92752.75;;;9.46;100.00
12475;BME280;6302;42.624;23.334;2024-01-06T10:52:50;92751.72;;;9.40;100.00
12475;BME280;6302;42.624;23.334;2024-01-06T10:55:19;92753.06;;;9.52;100.00
12475;BME280;6302;42.624;23.334;2024-01-06T10:57:48;92751.66;;;9.44;100.00
12475;BME280;6302;42.624;23.334;2024-01-06T11:00:17;92750.19;;;9.43;100.00
12475;BME280;6302;42.624;23.334;2024-01-06T11:02:46;92726.31;;;9.46;100.00
12475;BME280;6302;42.624;23.334;2024-01-06T11:05:15;92730.56;;;9.40;100.00
12475;BME280;6302;42.624;23.334;2024-01-06T11:07:42;92715.38;;;9.44;100.00
12475;BME280;6302;42.624;23.334;2024-01-06T11:10:14;92717.19;;;9.51;100.00
12475;BME280;6302;42.624;23.334;2024-01-06T11:12:42;92711.44;;;9.56;100.00
12475;BME280;6302;42.624;23.334;2024-01-06T11:15:10;92713.28;;;9.62;100.00
12475;BME280;6302;42.624;23.334;2024-01-06T11:17:52;92705.47;;;9.78;100.00
12475;BME280;6302;42.624;23.334;2024-01-06T11:20:21;92714.00;;;9.90;100.00
12475;BME280;6302;42.624;23.334;2024-01-06T11:22:48;92709.25;;;10.04;100.00
12475;BME280;6302;42.624;23.334;2024-01-06T11:25:16;92714.06;;;9.86;100.00
12475;BME280;6302;42.624;23.334;2024-01-06T11:27:45;92706.94;;;10.06;100.00
12475;BME280;6302;42.624;23.334;2024-01-06T11:30:21;92702.22;;;10.21;100.00
12475;BME280;6302;42.624;23.334;2024-01-06T11:32:48;92695.78;;;10.22;100.00
12475;BME280;6302;42.624;23.334;2024-01-06T11:35:18;92686.81;;;10.12;100.00
12475;BME280;6302;42.624;23.334;2024-01-06T11:37:55;92673.19;;;10.14;100.00
12475;BME280;6302;42.624;23.334;2024-01-06T11:40:25;92677.91;;;10.26;100.00
12475;BME280;6302;42.624;23.334;2024-01-06T11:43:03;92685.53;;;10.24;97.14
12475;BME280;6302;42.624;23.334;2024-01-06T11:45:33;92679.72;;;10.06;99.51
12475;BME280;6302;42.624;23.334;2024-01-06T11:48:01;92667.31;;;10.26;99.69
12475;BME280;6302;42.624;23.334;2024-01-06T11:50:29;92648.22;;;10.15;100.00
12475;BME280;6302;42.624;23.334;2024-01-06T11:52:56;92654.66;;;10.14;100.00
12475;BME280;6302;42.624;23.334;2024-01-06T11:55:23;92643.66;;;10.38;100.00
12475;BME280;6302;42.624;23.334;2024-01-06T11:57:53;92636.06;;;10.60;100.00
12475;BME280;6302;42.624;23.334;2024-01-06T12:00:22;92632.53;;;10.67;100.00
12475;BME280;6302;42.624;23.334;2024-01-06T12:02:55;92624.38;;;10.58;100.00
12475;BME280;6302;42.624;23.334;2024-01-06T12:05:22;92621.25;;;10.63;100.00
12475;BME280;6302;42.624;23.334;2024-01-06T12:07:54;92617.38;;;10.67;100.00
12475;BME280;6302;42.624;23.334;2024-01-06T12:10:22;92598.03;;;10.70;100.00
12475;BME280;6302;42.624;23.334;2024-01-06T12:12:56;92598.78;;;10.51;100.00
12475;BME280;6302;42.624;23.334;2024-01-06T12:15:24;92599.72;;;10.41;100.00
12475;BME280;6302;42.624;23.334;2024-01-06T12:17:53;92593.19;;;10.45;100.00
12475;BME280;6302;42.624;23.334;2024-01-06T12:20:21;92587.41;;;10.31;100.00
12475;BME280;6302;42.624;23.334;2024-01-06T12:22:50;92614.09;;;10.40;100.00
12475;BME280;6302;42.624;23.334;2024-01-06T12:25:17;92608.28;;;10.49;100.00
12475;BME280;6302;42.624;23.334;2024-01-06T12:27:44;92623.75;;;10.50;100.00
12475;BME280;6302;42.624;23.334;2024-01-06T12:30:14;92626.28;;;10.57;100.00
12475;BME280;6302;42.624;23.334;2024-01-06T12:32:45;92620.84;;;10.64;100.00
12475;BME280;6302;42.624;23.334;2024-01-06T12:35:16;92613.72;;;10.61;100.00
12475;BME280;6302;42.624;23.334;2024-01-06T12:37:43;92616.84;;;10.56;100.00
12475;BME280;6302;42.624;23.334;2024-01-06T12:40:12;92616.72;;;10.63;99.36
12475;BME280;6302;42.624;23.334;2024-01-06T12:42:40;92616.16;;;10.52;100.00
12475;BME280;6302;42.624;23.334;2024-01-06T12:45:08;92606.78;;;10.67;100.00
12475;BME280;6302;42.624;23.334;2024-01-06T12:47:35;92605.31;;;10.66;100.00
12475;BME280;6302;42.624;23.334;2024-01-06T12:50:03;92606.31;;;10.72;100.00
12475;BME280;6302;42.624;23.334;2024-01-06T12:52:31;92591.56;;;10.91;100.00
12475;BME280;6302;42.624;23.334;2024-01-06T12:54:59;92579.41;;;10.74;100.00
12475;BME280;6302;42.624;23.334;2024-01-06T12:57:28;92588.22;;;10.87;100.00
12475;BME280;6302;42.624;23.334;2024-01-06T12:59:54;92590.22;;;10.99;100.00
12475;BME280;6302;42.624;23.334;2024-01-06T13:02:21;92595.97;;;11.13;100.00